createdAt,value
2022-11-10T00:00:39.976Z,100581.81
2022-11-10T00:04:03.201Z,100586.16
2022-11-10T00:07:28.444Z,100585.28
2022-11-10T00:11:01.431Z,100592.16
2022-11-10T00:14:43.239Z,100590.53
2022-11-10T00:18:08.257Z,100588.03
2022-11-10T00:21:31.989Z,100588.81
2022-11-10T00:24:57.207Z,100586.44
2022-11-10T00:28:22.093Z,100590.69
2022-11-10T00:31:45.690Z,100592.44
2022-11-10T00:35:11.241Z,100596.06
2022-11-10T00:38:35.097Z,100594.28
2022-11-10T00:42:00.206Z,100596.09
2022-11-10T00:45:24.460Z,100601.22
2022-11-10T00:48:48.461Z,100603.88
2022-11-10T00:52:15.305Z,100615.78
2022-11-10T00:55:39.776Z,100605.63
2022-11-10T00:59:05.022Z,100603.06
2022-11-10T01:02:30.109Z,100597.88
2022-11-10T01:05:53.447Z,100608.00
2022-11-10T01:09:17.821Z,100608.00
2022-11-10T01:12:41.729Z,100607.13
2022-11-10T01:16:09.305Z,100599.59
2022-11-10T01:19:33.609Z,100602.88
2022-11-10T01:22:56.912Z,100601.44
2022-11-10T01:26:21.439Z,100603.22
2022-11-10T01:29:45.698Z,100605.91
2022-11-10T01:33:14.067Z,100598.28
2022-11-10T01:36:37.927Z,100608.56
2022-11-10T01:40:01.622Z,100611.13
2022-11-10T01:43:26.126Z,100612.69
2022-11-10T01:46:49.651Z,100616.06
2022-11-10T01:50:17.292Z,100614.34
2022-11-10T01:53:46.506Z,100621.19
2022-11-10T01:57:12.746Z,100615.22
2022-11-10T02:00:37.527Z,100621.38
2022-11-10T02:04:05.614Z,100629.03
2022-11-10T02:07:31.145Z,100625.72
2022-11-10T02:10:55.506Z,100635.13
2022-11-10T02:14:19.642Z,100636.91
2022-11-10T02:17:44.279Z,100641.13
2022-11-10T02:21:11.730Z,100637.88
2022-11-10T02:24:35.879Z,100638.03
2022-11-10T02:27:59.161Z,100641.38
2022-11-10T02:31:23.140Z,100652.56
2022-11-10T02:34:47.198Z,100638.88
2022-11-10T02:38:16.609Z,100637.13
2022-11-10T02:41:40.098Z,100646.47
2022-11-10T02:45:03.870Z,100651.66
2022-11-10T02:48:27.650Z,100643.28
2022-11-10T02:51:51.303Z,100645.75
2022-11-10T02:55:17.224Z,100666.97
2022-11-10T02:58:42.297Z,100662.59
2022-11-10T03:02:05.910Z,100671.91
2022-11-10T03:05:30.103Z,100674.25
2022-11-10T03:08:54.296Z,100676.69
2022-11-10T03:12:19.610Z,100675.78
2022-11-10T03:15:45.139Z,100667.25
2022-11-10T03:19:09.180Z,100667.22
2022-11-10T03:22:32.851Z,100673.91
2022-11-10T03:25:56.945Z,100671.38
2022-11-10T03:29:21.569Z,100676.53
2022-11-10T03:32:44.918Z,100692.66
2022-11-10T03:36:11.117Z,100686.78
2022-11-10T03:39:34.726Z,100693.56
2022-11-10T03:42:58.581Z,100679.97
2022-11-10T03:46:25.050Z,100696.16
2022-11-10T03:49:49.442Z,100691.78
2022-11-10T03:53:14.694Z,100688.38
2022-11-10T03:56:38.693Z,100697.72
2022-11-10T04:00:02.357Z,100702.72
2022-11-10T04:03:28.423Z,100706.06
2022-11-10T04:07:10.372Z,100702.53
2022-11-10T04:10:37.193Z,100701.72
2022-11-10T04:14:18.673Z,100705.00
2022-11-10T04:17:42.989Z,100702.31
2022-11-10T04:21:08.230Z,100702.53
2022-11-10T04:24:32.053Z,100712.38
2022-11-10T04:27:55.494Z,100704.69
2022-11-10T04:31:20.765Z,100710.44
2022-11-10T04:34:44.419Z,100719.66
2022-11-10T04:38:11.793Z,100723.13
2022-11-10T04:41:35.429Z,100722.22
2022-11-10T04:44:59.515Z,100724.59
2022-11-10T04:48:23.290Z,100711.69
2022-11-10T04:51:46.660Z,100715.16
2022-11-10T04:55:12.446Z,100717.03
2022-11-10T04:58:36.184Z,100732.44
2022-11-10T05:01:59.505Z,100727.22
2022-11-10T05:05:23.013Z,100735.78
2022-11-10T05:08:47.548Z,100737.44
2022-11-10T05:12:17.399Z,100750.97
2022-11-10T05:15:45.330Z,100756.69
2022-11-10T05:19:10.163Z,100759.25
2022-11-10T05:22:34.119Z,100759.09
2022-11-10T05:25:57.252Z,100763.38
2022-11-10T05:29:23.297Z,100767.59
2022-11-10T05:32:46.082Z,100774.38
2022-11-10T05:36:11.445Z,100777.81
2022-11-10T05:39:35.152Z,100782.22
2022-11-10T05:42:59.061Z,100786.47
2022-11-10T05:46:23.819Z,100800.88
2022-11-10T05:49:47.439Z,100794.19
2022-11-10T05:53:13.604Z,100802.66
2022-11-10T05:56:38.819Z,100812.84
2022-11-10T06:00:02.413Z,100817.91
2022-11-10T06:03:27.868Z,100827.28
2022-11-10T06:06:51.869Z,100836.66
2022-11-10T06:10:16.069Z,100839.19
2022-11-10T06:13:45.475Z,100851.22
2022-11-10T06:17:10.481Z,100847.72
2022-11-10T06:20:35.446Z,100846.91
2022-11-10T06:23:59.480Z,100861.56
2022-11-10T06:27:22.806Z,100870.66
2022-11-10T06:30:47.141Z,100870.59
2022-11-10T06:34:11.469Z,100869.75
2022-11-10T06:37:39.591Z,100878.19
2022-11-10T06:41:03.429Z,100886.59
2022-11-10T06:44:26.932Z,100888.22
2022-11-10T06:48:13.751Z,100899.28
2022-11-10T06:51:39.185Z,100898.41
2022-11-10T06:55:05.681Z,100896.59
2022-11-10T06:58:29.498Z,100900.84
2022-11-10T07:01:52.995Z,100909.31
2022-11-10T07:05:17.385Z,100916.94
2022-11-10T07:08:40.853Z,100916.13
2022-11-10T07:12:07.353Z,100922.84
2022-11-10T07:15:30.862Z,100934.78
2022-11-10T07:18:54.730Z,100933.81
2022-11-10T07:22:18.689Z,100930.34
2022-11-10T07:26:06.135Z,100934.88
2022-11-10T07:29:44.447Z,100943.31
2022-11-10T07:33:14.101Z,100951.59
2022-11-10T07:36:51.656Z,100955.03
2022-11-10T07:40:17.637Z,100958.47
2022-11-10T07:43:41.369Z,100960.09
2022-11-10T07:47:07.209Z,100961.69
2022-11-10T07:50:31.188Z,100960.88
2022-11-10T07:53:54.992Z,100971.06
2022-11-10T07:57:18.231Z,100965.94
2022-11-10T08:00:43.389Z,100975.97
2022-11-10T08:04:08.753Z,100986.94
2022-11-10T08:07:32.798Z,100978.56
2022-11-10T08:11:10.444Z,100975.06
2022-11-10T08:14:36.913Z,100984.25
2022-11-10T08:18:01.122Z,100983.41
2022-11-10T08:21:43.399Z,100993.59
2022-11-10T08:25:07.791Z,100990.06
2022-11-10T08:28:31.690Z,101004.47
2022-11-10T08:31:55.220Z,101002.66
2022-11-10T08:35:43.988Z,100999.16
2022-11-10T08:39:38.515Z,100991.34
2022-11-10T08:43:07.367Z,100987.91
2022-11-10T08:46:47.024Z,100987.75
2022-11-10T08:50:31.997Z,100991.88
2022-11-10T08:53:55.550Z,100999.53
2022-11-10T08:57:23.458Z,101004.59
2022-11-10T09:00:47.902Z,100995.97
2022-11-10T09:04:26.200Z,101003.50
2022-11-10T09:07:51.572Z,101006.94
2022-11-10T09:11:17.908Z,101004.31
2022-11-10T09:14:42.987Z,100999.06
2022-11-10T09:18:09.190Z,101000.69
2022-11-10T09:21:32.622Z,101004.78
2022-11-10T09:24:56.118Z,101013.47
2022-11-10T09:28:21.352Z,101004.03
2022-11-10T09:31:46.923Z,101002.34
2022-11-10T09:35:11.612Z,101027.75
2022-11-10T09:38:35.510Z,101034.47
2022-11-10T09:41:59.039Z,101039.66
2022-11-10T09:45:27.609Z,101031.06
2022-11-10T09:49:13.306Z,101032.06
2022-11-10T09:52:56.561Z,101040.59
2022-11-10T09:56:24.194Z,101059.47
2022-11-10T09:59:48.092Z,101059.47
2022-11-10T10:03:24.550Z,101064.69
2022-11-10T10:07:10.678Z,101065.31
2022-11-10T10:10:40.961Z,101070.50
2022-11-10T10:14:29.606Z,101070.41
2022-11-10T10:18:03.699Z,101067.75
2022-11-10T10:21:42.183Z,101071.09
2022-11-10T10:25:20.157Z,101062.47
2022-11-10T10:28:47.263Z,101072.59
2022-11-10T10:32:16.237Z,101062.44
2022-11-10T10:35:41.983Z,101074.44
2022-11-10T10:39:11.140Z,101088.03
2022-11-10T10:42:38.869Z,101096.59
2022-11-10T10:46:09.044Z,101086.97
2022-11-10T10:49:34.628Z,101094.59
2022-11-10T10:53:12.239Z,101091.97
2022-11-10T10:56:36.719Z,101097.78
2022-11-10T11:00:21.593Z,101096.78
2022-11-10T11:03:48.186Z,101106.66
2022-11-10T11:07:23.158Z,101092.13
2022-11-10T11:10:48.549Z,101097.50
2022-11-10T11:14:22.260Z,101103.63
2022-11-10T11:18:14.066Z,101101.91
2022-11-10T11:21:50.762Z,101103.91
2022-11-10T11:25:24.041Z,101099.38
2022-11-10T11:28:58.921Z,101107.91
2022-11-10T11:33:12.830Z,101112.97
2022-11-10T11:36:48.306Z,101114.44
2022-11-10T11:40:26.762Z,101109.19
2022-11-10T11:44:13.105Z,101110.84
2022-11-10T11:47:55.351Z,101112.72
2022-11-10T11:51:27.458Z,101111.84
2022-11-10T11:55:11.053Z,101113.28
2022-11-10T11:58:44.985Z,101128.63
2022-11-10T12:02:30.077Z,101126.91
2022-11-10T12:06:11.913Z,101129.28
2022-11-10T12:09:44.969Z,101128.38
2022-11-10T12:13:39.547Z,101136.25
2022-11-10T12:17:12.395Z,101132.75
2022-11-10T12:20:49.739Z,101131.75
2022-11-10T12:24:35.652Z,101136.97
2022-11-10T12:28:12.880Z,101147.88
2022-11-10T12:31:40.150Z,101141.16
2022-11-10T12:35:11.877Z,101136.88
2022-11-10T12:38:45.871Z,101152.31
2022-11-10T12:42:16.098Z,101161.75
2022-11-10T12:45:44.242Z,101150.88
2022-11-10T12:49:18.226Z,101164.97
2022-11-10T12:52:47.607Z,101155.56
2022-11-10T12:56:19.008Z,101158.94
2022-11-10T12:59:43.938Z,101165.16
2022-11-10T13:03:27.201Z,101159.16
2022-11-10T13:06:55.419Z,101173.84
2022-11-10T13:10:25.015Z,101179.94
2022-11-10T13:13:59.280Z,101184.16
2022-11-10T13:17:56.197Z,101191.78
2022-11-10T13:22:18.696Z,101199.47
2022-11-10T13:26:03.682Z,101197.19
2022-11-10T13:29:37.670Z,101208.47
2022-11-10T13:33:37.482Z,101195.63
2022-11-10T13:37:01.871Z,101188.88
2022-11-10T13:40:39.672Z,101192.09
2022-11-10T13:44:03.678Z,101198.19
2022-11-10T13:47:47.810Z,101189.75
2022-11-10T13:51:32.408Z,101188.31
2022-11-10T13:55:42.248Z,101204.53
2022-11-10T13:59:19.029Z,101204.47
2022-11-10T14:02:54.920Z,101210.81
2022-11-10T14:06:22.909Z,101219.28
2022-11-10T14:09:49.321Z,101230.38
2022-11-10T14:13:20.357Z,101233.16
2022-11-10T14:16:45.019Z,101247.84
2022-11-10T14:20:23.686Z,101264.19
2022-11-10T14:23:49.985Z,101266.63
2022-11-10T14:27:17.051Z,101280.22
2022-11-10T14:30:41.798Z,101293.28
2022-11-10T14:34:05.263Z,101294.06
2022-11-10T14:37:30.645Z,101304.25
2022-11-10T14:40:57.705Z,101311.97
2022-11-10T14:44:26.411Z,101310.31
2022-11-10T14:47:56.083Z,101310.47
2022-11-10T14:51:20.733Z,101309.69
2022-11-10T14:54:46.217Z,101320.84
2022-11-10T14:58:15.750Z,101314.19
2022-11-10T15:01:43.133Z,101320.28
2022-11-10T15:05:14.618Z,101327.78
2022-11-10T15:08:38.765Z,101328.47
2022-11-10T15:12:21.713Z,101327.59
2022-11-10T15:15:45.248Z,101316.56
2022-11-10T15:19:25.639Z,101312.16
2022-11-10T15:22:52.014Z,101323.34
2022-11-10T15:26:22.706Z,101324.25
2022-11-10T15:29:58.845Z,101325.19
2022-11-10T15:33:32.531Z,101332.03
2022-11-10T15:37:12.533Z,101329.53
2022-11-10T15:40:46.121Z,101330.53
2022-11-10T15:44:19.346Z,101319.56
2022-11-10T15:47:43.800Z,101328.00
2022-11-10T15:51:10.974Z,101329.03
2022-11-10T15:54:36.856Z,101327.47
2022-11-10T15:58:02.864Z,101322.38
2022-11-10T16:01:26.254Z,101325.75
2022-11-10T16:05:12.811Z,101333.66
2022-11-10T16:08:37.969Z,101330.41
2022-11-10T16:12:01.182Z,101333.66
2022-11-10T16:15:26.740Z,101331.06
2022-11-10T16:18:50.738Z,101329.44
2022-11-10T16:22:14.233Z,101343.97
2022-11-10T16:25:38.298Z,101354.28
2022-11-10T16:29:01.798Z,101345.81
2022-11-10T16:32:26.855Z,101348.44
2022-11-10T16:35:52.664Z,101345.81
2022-11-10T16:39:37.090Z,101343.38
2022-11-10T16:43:00.437Z,101341.72
2022-11-10T16:46:25.952Z,101347.03
2022-11-10T16:50:31.331Z,101341.03
2022-11-10T16:53:56.278Z,101343.56
2022-11-10T16:57:40.753Z,101338.63
2022-11-10T17:01:26.804Z,101338.50
2022-11-10T17:04:50.320Z,101343.78
2022-11-10T17:08:31.628Z,101344.59
2022-11-10T17:12:16.632Z,101346.38
2022-11-10T17:16:05.272Z,101354.13
2022-11-10T17:19:49.052Z,101346.38
2022-11-10T17:23:39.550Z,101349.81
2022-11-10T17:27:03.022Z,101335.41
2022-11-10T17:30:46.319Z,101338.78
2022-11-10T17:34:31.669Z,101331.13
2022-11-10T17:37:58.352Z,101333.66
2022-11-10T17:41:36.849Z,101334.53
2022-11-10T17:45:20.486Z,101324.31
2022-11-10T17:48:47.867Z,101326.88
2022-11-10T17:52:19.030Z,101342.19
2022-11-10T17:55:42.369Z,101322.63
2022-11-10T17:59:07.533Z,101331.16
2022-11-10T18:02:31.115Z,101328.66
2022-11-10T18:05:54.830Z,101332.91
2022-11-10T18:09:36.777Z,101338.03
2022-11-10T18:13:14.473Z,101345.00
2022-11-10T18:16:43.574Z,101339.88
2022-11-10T18:20:09.653Z,101324.34
2022-11-10T18:23:56.572Z,101337.13
2022-11-10T18:27:46.874Z,101329.44
2022-11-10T18:31:26.167Z,101332.72
2022-11-10T18:34:51.749Z,101330.16
2022-11-10T18:38:35.908Z,101323.31
2022-11-10T18:42:00.241Z,101318.91
2022-11-10T18:45:44.181Z,101318.00
2022-11-10T18:49:31.198Z,101310.31
2022-11-10T18:52:55.559Z,101305.16
2022-11-10T18:56:45.274Z,101307.69
2022-11-10T19:00:12.793Z,101298.31
2022-11-10T19:03:56.230Z,101300.84
2022-11-10T19:07:19.925Z,101310.13
2022-11-10T19:10:45.065Z,101304.13
2022-11-10T19:14:08.108Z,101303.25
2022-11-10T19:17:31.294Z,101303.25
2022-11-10T19:20:54.734Z,101299.84
2022-11-10T19:24:27.674Z,101301.47
2022-11-10T19:27:54.184Z,101293.66
2022-11-10T19:31:22.527Z,101291.94
2022-11-10T19:34:45.921Z,101290.94
2022-11-10T19:38:12.506Z,101286.59
2022-11-10T19:41:35.659Z,101294.22
2022-11-10T19:45:00.842Z,101302.78
2022-11-10T19:48:24.472Z,101294.97
2022-11-10T19:51:48.014Z,101305.94
2022-11-10T19:55:12.423Z,101301.69
2022-11-10T19:58:38.183Z,101283.69
2022-11-10T20:02:03.765Z,101295.59
2022-11-10T20:05:27.468Z,101289.63
2022-11-10T20:08:51.231Z,101294.72
2022-11-10T20:12:14.992Z,101287.06
2022-11-10T20:15:40.813Z,101280.94
2022-11-10T20:19:05.621Z,101280.94
2022-11-10T20:22:29.036Z,101265.50
2022-11-10T20:26:04.047Z,101268.88
2022-11-10T20:29:27.780Z,101279.03
2022-11-10T20:32:51.434Z,101269.53
2022-11-10T20:36:20.509Z,101269.56
2022-11-10T20:39:44.533Z,101279.13
2022-11-10T20:43:07.811Z,101277.25
2022-11-10T20:46:53.576Z,101280.53
2022-11-10T20:50:18.256Z,101273.84
2022-11-10T20:53:46.691Z,101265.38
2022-11-10T20:57:10.662Z,101277.22
2022-11-10T21:00:34.197Z,101269.59
2022-11-10T21:03:57.365Z,101266.84
2022-11-10T21:07:20.941Z,101258.41
2022-11-10T21:10:53.023Z,101273.00
2022-11-10T21:14:17.889Z,101267.09
2022-11-10T21:17:44.211Z,101261.97
2022-11-10T21:21:26.929Z,101265.31
2022-11-10T21:24:49.885Z,101259.31
2022-11-10T21:28:20.579Z,101251.66
2022-11-10T21:31:44.392Z,101250.88
2022-11-10T21:35:10.268Z,101245.56
2022-11-10T21:38:33.130Z,101232.72
2022-11-10T21:41:56.943Z,101237.84
2022-11-10T21:45:21.479Z,101237.81
2022-11-10T21:48:45.440Z,101241.31
2022-11-10T21:52:08.580Z,101223.25
2022-11-10T21:55:32.241Z,101241.84
2022-11-10T21:59:36.233Z,101234.38
2022-11-10T22:03:00.329Z,101214.53
2022-11-10T22:06:23.455Z,101214.50
2022-11-10T22:10:04.393Z,101208.47
2022-11-10T22:13:45.415Z,101211.91
2022-11-10T22:17:33.964Z,101212.72
2022-11-10T22:20:57.288Z,101204.09
2022-11-10T22:24:27.739Z,101202.44
2022-11-10T22:27:50.948Z,101190.34
2022-11-10T22:31:16.053Z,101179.31
2022-11-10T22:34:40.581Z,101183.53
2022-11-10T22:38:06.208Z,101181.84
2022-11-10T22:41:46.906Z,101169.88
2022-11-10T22:45:12.462Z,101171.53
2022-11-10T22:48:35.704Z,101165.75
2022-11-10T22:52:00.808Z,101169.09
2022-11-10T22:55:24.318Z,101161.56
2022-11-10T22:58:48.556Z,101145.34
2022-11-10T23:02:11.987Z,101166.66
2022-11-10T23:05:36.132Z,101146.16
2022-11-10T23:09:01.181Z,101147.72
2022-11-10T23:12:25.274Z,101140.75
2022-11-10T23:15:53.069Z,101147.63
2022-11-10T23:19:16.925Z,101134.91
2022-11-10T23:22:40.148Z,101115.50
2022-11-10T23:26:07.830Z,101129.84
2022-11-10T23:29:31.758Z,101102.47
2022-11-10T23:32:56.096Z,101107.00
2022-11-10T23:36:21.332Z,101092.31
2022-11-10T23:39:44.638Z,101099.09
2022-11-10T23:43:10.705Z,101086.44
2022-11-10T23:46:34.367Z,101087.34
2022-11-10T23:49:57.571Z,101090.72
2022-11-10T23:53:22.144Z,101107.63
2022-11-10T23:56:46.342Z,101092.31
